createdAt,value
2023-02-12T00:01:51.256Z,25.00
2023-02-12T00:06:54.024Z,26.75
2023-02-12T00:11:56.890Z,26.25
2023-02-12T00:17:01.350Z,24.50
2023-02-12T00:22:04.320Z,22.25
2023-02-12T00:27:07.077Z,21.50
2023-02-12T00:32:11.802Z,20.00
2023-02-12T00:37:15.369Z,25.25
2023-02-12T00:42:18.174Z,23.50
2023-02-12T00:47:23.094Z,22.00
2023-02-12T00:52:26.154Z,20.25
2023-02-12T00:57:28.958Z,23.50
2023-02-12T01:02:34.011Z,22.00
2023-02-12T01:07:38.475Z,21.25
2023-02-12T01:12:41.544Z,19.75
2023-02-12T01:17:46.345Z,19.50
2023-02-12T01:22:49.271Z,23.00
2023-02-12T01:27:54.825Z,18.25
2023-02-12T01:33:00.597Z,19.25
2023-02-12T01:38:03.390Z,17.50
2023-02-12T01:43:08.223Z,22.25
2023-02-12T01:48:12.588Z,19.50
2023-02-12T01:53:20.228Z,19.00
2023-02-12T01:58:26.053Z,19.00
2023-02-12T02:03:30.502Z,21.50
2023-02-12T02:08:34.902Z,16.25
2023-02-12T02:13:55.072Z,15.00
2023-02-12T02:19:09.393Z,16.25
2023-02-12T02:24:39.478Z,15.50
2023-02-12T02:29:49.772Z,20.00
2023-02-12T02:35:00.521Z,14.50
2023-02-12T02:40:13.085Z,15.00
2023-02-12T02:45:19.952Z,17.00
2023-02-12T02:50:28.724Z,16.00
2023-02-12T02:55:38.006Z,17.75
2023-02-12T03:00:45.266Z,16.00
2023-02-12T03:05:54.200Z,18.00
2023-02-12T03:11:00.947Z,20.00
2023-02-12T03:16:10.113Z,15.50
2023-02-12T03:21:19.238Z,16.75
2023-02-12T03:26:27.275Z,11.00
2023-02-12T03:31:37.171Z,15.75
2023-02-12T03:36:52.486Z,15.00
2023-02-12T03:42:03.479Z,13.75
2023-02-12T03:47:17.164Z,15.00
2023-02-12T03:52:21.459Z,14.00
2023-02-12T03:57:30.547Z,11.75
2023-02-12T04:02:33.566Z,15.25
2023-02-12T04:07:38.280Z,14.25
2023-02-12T04:12:44.136Z,14.00
2023-02-12T04:17:55.388Z,13.50
2023-02-12T04:23:12.628Z,14.00
2023-02-12T04:28:28.771Z,13.00
2023-02-12T04:33:40.909Z,14.50
2023-02-12T04:38:52.631Z,14.50
2023-02-12T04:43:55.454Z,13.25
2023-02-12T04:48:59.971Z,11.00
2023-02-12T04:54:04.158Z,15.25
2023-02-12T04:59:07.504Z,12.50
2023-02-12T05:04:12.834Z,12.50
2023-02-12T05:09:19.260Z,11.00
2023-02-12T05:14:24.789Z,14.00
2023-02-12T05:19:27.706Z,15.00
2023-02-12T05:24:31.846Z,12.00
2023-02-12T05:29:34.704Z,11.00
2023-02-12T05:34:38.181Z,12.00
2023-02-12T05:39:42.511Z,14.00
2023-02-12T05:44:45.520Z,11.50
2023-02-12T05:49:48.326Z,12.50
2023-02-12T05:54:52.468Z,15.25
2023-02-12T05:59:55.543Z,11.50
2023-02-12T06:04:58.306Z,14.00
2023-02-12T06:10:02.464Z,11.25
2023-02-12T06:15:05.622Z,10.75
2023-02-12T06:20:08.959Z,9.75
2023-02-12T06:25:13.114Z,9.25
2023-02-12T06:30:16.731Z,11.00
2023-02-12T06:35:19.729Z,10.00
2023-02-12T06:40:24.129Z,9.00
2023-02-12T06:45:27.048Z,12.50
2023-02-12T06:50:31.326Z,10.00
2023-02-12T06:55:35.822Z,11.25
2023-02-12T07:00:38.628Z,13.25
2023-02-12T07:05:41.487Z,8.50
2023-02-12T07:10:49.658Z,10.75
2023-02-12T07:15:52.582Z,9.00
2023-02-12T07:20:57.309Z,13.75
2023-02-12T07:26:03.722Z,9.00
2023-02-12T07:31:11.310Z,9.25
2023-02-12T07:36:16.155Z,8.50
2023-02-12T07:41:22.267Z,10.75
2023-02-12T07:46:29.796Z,7.75
2023-02-12T07:51:33.764Z,7.25
2023-02-12T07:56:39.870Z,10.50
2023-02-12T08:01:44.546Z,8.50
2023-02-12T08:06:49.436Z,20.75
2023-02-12T08:11:53.825Z,30.50
2023-02-12T08:16:56.638Z,37.20
2023-02-12T08:21:59.566Z,34.25
2023-02-12T08:27:03.885Z,23.50
2023-02-12T08:32:10.584Z,25.25
2023-02-12T08:37:13.482Z,24.50
2023-02-12T08:42:17.720Z,16.75
2023-02-12T08:47:20.481Z,16.50
2023-02-12T08:52:23.219Z,15.25
2023-02-12T08:57:27.444Z,16.25
2023-02-12T09:02:30.243Z,12.00
2023-02-12T09:07:33.169Z,14.50
2023-02-12T09:12:37.364Z,12.50
2023-02-12T09:17:41.693Z,14.75
2023-02-12T09:22:44.430Z,12.00
2023-02-12T09:27:48.491Z,11.00
2023-02-12T09:32:51.244Z,10.50
2023-02-12T09:37:54.439Z,10.00
2023-02-12T09:43:07.488Z,11.00
2023-02-12T09:48:32.874Z,10.25
2023-02-12T09:53:40.279Z,9.50
2023-02-12T09:58:48.383Z,8.50
2023-02-12T10:03:53.350Z,10.25
2023-02-12T10:09:23.107Z,11.75
2023-02-12T10:15:01.119Z,9.00
2023-02-12T10:20:24.703Z,9.50
2023-02-12T10:25:37.211Z,10.50
2023-02-12T10:30:49.436Z,8.25
2023-02-12T10:35:58.310Z,8.75
2023-02-12T10:41:02.500Z,9.00
2023-02-12T10:46:06.789Z,12.00
2023-02-12T10:51:30.817Z,8.00
2023-02-12T10:56:33.764Z,9.25
2023-02-12T11:01:39.740Z,7.75
2023-02-12T11:06:58.469Z,8.00
2023-02-12T11:12:01.720Z,11.75
2023-02-12T11:17:06.066Z,7.50
2023-02-12T11:22:14.564Z,8.75
2023-02-12T11:27:25.218Z,10.50
2023-02-12T11:32:29.444Z,9.00
2023-02-12T11:37:36.418Z,9.00
2023-02-12T11:42:41.434Z,7.00
2023-02-12T11:47:46.461Z,13.75
2023-02-12T11:52:51.851Z,15.00
2023-02-12T11:58:02.967Z,19.25
2023-02-12T12:03:16.291Z,17.50
2023-02-12T12:08:25.377Z,14.25
2023-02-12T12:13:34.876Z,16.25
2023-02-12T12:19:05.414Z,15.25
2023-02-12T12:24:15.863Z,14.75
2023-02-12T12:29:25.580Z,11.75
2023-02-12T12:34:30.257Z,12.00
2023-02-12T12:39:37.949Z,14.00
2023-02-12T12:44:56.316Z,14.50
2023-02-12T12:50:24.007Z,11.00
2023-02-12T12:56:00.047Z,9.50
2023-02-12T13:01:21.544Z,11.00
2023-02-12T13:06:39.404Z,11.25
2023-02-12T13:11:56.385Z,8.75
2023-02-12T13:17:09.164Z,11.25
2023-02-12T13:22:24.210Z,9.25
2023-02-12T13:27:34.503Z,9.00
2023-02-12T13:32:43.254Z,10.50
2023-02-12T13:37:50.336Z,9.50
2023-02-12T13:42:59.344Z,7.75
2023-02-12T13:48:21.446Z,9.25
2023-02-12T13:53:32.218Z,9.25
2023-02-12T13:58:51.949Z,9.50
2023-02-12T14:03:54.812Z,8.75
2023-02-12T14:09:11.052Z,8.75
2023-02-12T14:14:14.264Z,8.75
2023-02-12T14:19:38.737Z,10.50
2023-02-12T14:24:52.666Z,8.75
2023-02-12T14:30:17.878Z,10.50
2023-02-12T14:35:35.138Z,7.25
2023-02-12T14:40:42.779Z,8.00
2023-02-12T14:45:45.731Z,8.50
2023-02-12T14:50:52.019Z,7.00
2023-02-12T14:55:58.208Z,6.50
2023-02-12T15:01:04.060Z,8.00
2023-02-12T15:06:14.560Z,7.50
2023-02-12T15:11:35.109Z,9.50
2023-02-12T15:16:50.612Z,9.75
2023-02-12T15:21:55.470Z,8.00
2023-02-12T15:27:01.460Z,11.75
2023-02-12T15:32:07.863Z,8.00
2023-02-12T15:37:17.840Z,8.75
2023-02-12T15:42:31.541Z,11.25
2023-02-12T15:47:34.682Z,11.50
2023-02-12T15:52:40.681Z,13.25
2023-02-12T15:57:45.854Z,9.00
2023-02-12T16:02:53.299Z,10.50
2023-02-12T16:07:56.999Z,10.25
2023-02-12T16:13:01.524Z,11.75
2023-02-12T16:18:06.734Z,9.50
2023-02-12T16:23:10.134Z,9.75
2023-02-12T16:28:23.835Z,11.75
2023-02-12T16:33:43.280Z,11.00
2023-02-12T16:38:47.910Z,9.25
2023-02-12T16:44:12.950Z,12.00
2023-02-12T16:49:18.720Z,11.00
2023-02-12T16:54:31.220Z,11.75
2023-02-12T16:59:34.958Z,10.75
2023-02-12T17:04:39.726Z,8.50
2023-02-12T17:09:42.687Z,8.00
2023-02-12T17:14:45.463Z,10.25
2023-02-12T17:19:49.784Z,9.25
2023-02-12T17:24:53.185Z,10.50
2023-02-12T17:29:56.014Z,9.25
2023-02-12T17:35:00.199Z,9.00
2023-02-12T17:40:02.949Z,8.50
2023-02-12T17:45:06.516Z,8.75
2023-02-12T17:50:12.824Z,8.00
2023-02-12T17:55:17.388Z,7.75
2023-02-12T18:00:21.556Z,8.25
2023-02-12T18:05:25.710Z,9.75
2023-02-12T18:10:28.472Z,10.00
2023-02-12T18:15:31.274Z,11.00
2023-02-12T18:20:35.419Z,11.25
2023-02-12T18:25:42.105Z,9.75
2023-02-12T18:30:45.070Z,13.75
2023-02-12T18:35:59.949Z,11.25
2023-02-12T18:41:07.328Z,15.25
2023-02-12T18:46:12.111Z,15.00
2023-02-12T18:51:18.979Z,13.50
2023-02-12T18:56:21.754Z,13.50
2023-02-12T19:01:25.600Z,18.50
2023-02-12T19:06:30.847Z,15.75
2023-02-12T19:11:35.139Z,16.00
2023-02-12T19:16:38.054Z,13.75
2023-02-12T19:21:42.443Z,20.00
2023-02-12T19:26:46.396Z,18.50
2023-02-12T19:31:49.765Z,29.50
2023-02-12T19:36:54.064Z,22.50
2023-02-12T19:41:57.260Z,19.00
2023-02-12T19:47:00.163Z,23.50
2023-02-12T19:52:04.615Z,21.25
2023-02-12T19:57:09.203Z,18.75
2023-02-12T20:02:12.203Z,19.75
2023-02-12T20:07:16.303Z,19.75
2023-02-12T20:12:19.299Z,21.00
2023-02-12T20:17:22.131Z,22.00
2023-02-12T20:22:26.257Z,21.25
2023-02-12T20:27:29.219Z,25.00
2023-02-12T20:32:34.555Z,21.50
2023-02-12T20:37:38.960Z,23.25
2023-02-12T20:42:41.961Z,19.75
2023-02-12T20:47:44.785Z,19.25
2023-02-12T20:52:48.956Z,22.50
2023-02-12T20:57:51.965Z,20.00
2023-02-12T21:02:55.440Z,21.25
2023-02-12T21:07:59.690Z,25.75
2023-02-12T21:13:02.525Z,25.50
2023-02-12T21:18:05.474Z,18.50
2023-02-12T21:23:09.675Z,21.00
2023-02-12T21:28:12.622Z,19.75
2023-02-12T21:33:15.398Z,18.75
2023-02-12T21:38:19.583Z,17.75
2023-02-12T21:43:22.341Z,17.25
2023-02-12T21:48:25.135Z,15.00
2023-02-12T21:53:30.401Z,16.75
2023-02-12T21:58:33.206Z,13.75
2023-02-12T22:03:36.185Z,19.50
2023-02-12T22:08:40.521Z,15.00
2023-02-12T22:13:43.535Z,14.75
2023-02-12T22:18:47.106Z,14.00
2023-02-12T22:23:51.726Z,16.00
2023-02-12T22:28:56.730Z,15.25
2023-02-12T22:34:02.227Z,14.00
2023-02-12T22:39:06.982Z,15.00
2023-02-12T22:44:11.085Z,11.50
2023-02-12T22:49:14.500Z,12.00
2023-02-12T22:54:20.110Z,15.75
2023-02-12T22:59:22.932Z,11.50
2023-02-12T23:04:26.026Z,12.75
2023-02-12T23:09:30.363Z,13.00
2023-02-12T23:14:33.911Z,11.75
2023-02-12T23:19:36.764Z,12.50
2023-02-12T23:24:40.940Z,15.25
2023-02-12T23:29:43.766Z,11.75
2023-02-12T23:34:46.530Z,14.25
2023-02-12T23:39:51.778Z,13.75
2023-02-12T23:44:56.748Z,11.50
2023-02-12T23:49:59.756Z,14.00
2023-02-12T23:55:03.936Z,12.25
